sensor_id;sensor_type;location;lat;lon;timestamp;temperature;humidity
76120;DHT22;64852;48.092;-1.640;2023-02-26T00:02:10;5.50;99.90
76120;DHT22;64852;48.092;-1.640;2023-02-26T00:04:36;5.50;99.90
76120;DHT22;64852;48.092;-1.640;2023-02-26T00:07:02;5.50;99.90
76120;DHT22;64852;48.092;-1.640;2023-02-26T00:09:29;5.50;99.90
76120;DHT22;64852;48.092;-1.640;2023-02-26T00:11:56;5.50;99.90
76120;DHT22;64852;48.092;-1.640;2023-02-26T00:14:22;5.40;99.90
76120;DHT22;64852;48.092;-1.640;2023-02-26T00:19:28;5.40;99.90
76120;DHT22;64852;48.092;-1.640;2023-02-26T00:21:54;5.40;99.90
76120;DHT22;64852;48.092;-1.640;2023-02-26T00:24:20;5.40;99.90
76120;DHT22;64852;48.092;-1.640;2023-02-26T00:26:46;4.20;99.90
76120;DHT22;64852;48.092;-1.640;2023-02-26T00:29:12;5.50;99.90
76120;DHT22;64852;48.092;-1.640;2023-02-26T00:31:37;5.30;99.90
76120;DHT22;64852;48.092;-1.640;2023-02-26T00:34:03;5.20;99.90
76120;DHT22;64852;48.092;-1.640;2023-02-26T00:36:46;5.20;99.90
76120;DHT22;64852;48.092;-1.640;2023-02-26T00:39:46;5.20;99.90
76120;DHT22;64852;48.092;-1.640;2023-02-26T00:42:14;5.10;99.90
76120;DHT22;64852;48.092;-1.640;2023-02-26T00:44:40;5.00;99.90
76120;DHT22;64852;48.092;-1.640;2023-02-26T00:49:42;5.00;99.90
76120;DHT22;64852;48.092;-1.640;2023-02-26T00:52:47;4.90;99.90
76120;DHT22;64852;48.092;-1.640;2023-02-26T00:55:00;5.00;99.90
76120;DHT22;64852;48.092;-1.640;2023-02-26T00:57:25;5.00;99.90
76120;DHT22;64852;48.092;-1.640;2023-02-26T00:59:51;4.80;99.90
76120;DHT22;64852;48.092;-1.640;2023-02-26T01:02:16;4.80;99.90
76120;DHT22;64852;48.092;-1.640;2023-02-26T01:04:42;4.70;99.90
76120;DHT22;64852;48.092;-1.640;2023-02-26T01:07:09;4.60;99.90
76120;DHT22;64852;48.092;-1.640;2023-02-26T01:09:35;4.70;99.90
76120;DHT22;64852;48.092;-1.640;2023-02-26T01:12:05;4.70;99.90
76120;DHT22;64852;48.092;-1.640;2023-02-26T01:14:32;4.80;99.90
76120;DHT22;64852;48.092;-1.640;2023-02-26T01:17:33;4.70;99.90
76120;DHT22;64852;48.092;-1.640;2023-02-26T01:22:45;4.70;99.90
76120;DHT22;64852;48.092;-1.640;2023-02-26T01:25:18;4.70;99.90
76120;DHT22;64852;48.092;-1.640;2023-02-26T01:27:46;4.60;99.90
76120;DHT22;64852;48.092;-1.640;2023-02-26T01:30:12;4.60;99.90
76120;DHT22;64852;48.092;-1.640;2023-02-26T01:38:03;4.60;99.90
76120;DHT22;64852;48.092;-1.640;2023-02-26T01:46:55;4.60;99.90
76120;DHT22;64852;48.092;-1.640;2023-02-26T01:49:22;4.60;99.90
76120;DHT22;64852;48.092;-1.640;2023-02-26T01:51:56;4.50;99.90
76120;DHT22;64852;48.092;-1.640;2023-02-26T01:54:35;4.40;99.90
76120;DHT22;64852;48.092;-1.640;2023-02-26T01:57:11;4.40;99.90
76120;DHT22;64852;48.092;-1.640;2023-02-26T01:59:41;4.30;99.90
76120;DHT22;64852;48.092;-1.640;2023-02-26T02:02:09;4.30;99.90
76120;DHT22;64852;48.092;-1.640;2023-02-26T02:04:36;4.30;99.90
76120;DHT22;64852;48.092;-1.640;2023-02-26T02:07:02;4.20;99.90
76120;DHT22;64852;48.092;-1.640;2023-02-26T02:09:28;4.20;99.90
76120;DHT22;64852;48.092;-1.640;2023-02-26T02:15:08;4.00;99.90
76120;DHT22;64852;48.092;-1.640;2023-02-26T02:25:47;4.00;99.90
76120;DHT22;64852;48.092;-1.640;2023-02-26T02:28:34;3.90;99.90
76120;DHT22;64852;48.092;-1.640;2023-02-26T02:31:27;4.00;99.90
76120;DHT22;64852;48.092;-1.640;2023-02-26T02:34:08;3.90;99.90
76120;DHT22;64852;48.092;-1.640;2023-02-26T02:36:44;3.90;99.90
76120;DHT22;64852;48.092;-1.640;2023-02-26T02:39:18;3.90;99.90
76120;DHT22;64852;48.092;-1.640;2023-02-26T02:41:57;4.00;99.90
76120;DHT22;64852;48.092;-1.640;2023-02-26T02:44:25;4.00;99.90
76120;DHT22;64852;48.092;-1.640;2023-02-26T02:46:53;4.60;99.90
76120;DHT22;64852;48.092;-1.640;2023-02-26T02:49:24;4.20;99.90
76120;DHT22;64852;48.092;-1.640;2023-02-26T02:52:11;3.90;99.90
76120;DHT22;64852;48.092;-1.640;2023-02-26T02:54:46;3.90;99.90
76120;DHT22;64852;48.092;-1.640;2023-02-26T02:57:20;3.90;99.90
76120;DHT22;64852;48.092;-1.640;2023-02-26T02:59:53;3.90;99.90
76120;DHT22;64852;48.092;-1.640;2023-02-26T03:02:28;3.80;99.90
76120;DHT22;64852;48.092;-1.640;2023-02-26T03:04:56;3.70;99.90
76120;DHT22;64852;48.092;-1.640;2023-02-26T03:07:22;4.30;99.90
76120;DHT22;64852;48.092;-1.640;2023-02-26T03:09:48;3.70;99.90
76120;DHT22;64852;48.092;-1.640;2023-02-26T03:12:14;4.00;99.90
76120;DHT22;64852;48.092;-1.640;2023-02-26T03:14:40;4.20;99.90
76120;DHT22;64852;48.092;-1.640;2023-02-26T03:22:42;3.60;99.90
76120;DHT22;64852;48.092;-1.640;2023-02-26T03:25:30;3.50;99.90
76120;DHT22;64852;48.092;-1.640;2023-02-26T03:31:01;3.50;99.90
76120;DHT22;64852;48.092;-1.640;2023-02-26T03:33:44;3.60;99.90
76120;DHT22;64852;48.092;-1.640;2023-02-26T03:36:17;3.50;99.90
76120;DHT22;64852;48.092;-1.640;2023-02-26T03:39:00;3.80;99.90
76120;DHT22;64852;48.092;-1.640;2023-02-26T03:44:07;3.70;99.90
76120;DHT22;64852;48.092;-1.640;2023-02-26T03:46:43;3.30;99.90
76120;DHT22;64852;48.092;-1.640;2023-02-26T03:49:14;3.30;99.90
76120;DHT22;64852;48.092;-1.640;2023-02-26T03:51:41;3.20;99.90
76120;DHT22;64852;48.092;-1.640;2023-02-26T03:54:29;3.60;99.90
76120;DHT22;64852;48.092;-1.640;2023-02-26T03:56:56;3.20;99.90
76120;DHT22;64852;48.092;-1.640;2023-02-26T03:59:21;3.30;99.90
76120;DHT22;64852;48.092;-1.640;2023-02-26T04:02:04;3.20;99.90
76120;DHT22;64852;48.092;-1.640;2023-02-26T04:04:40;3.20;99.90
76120;DHT22;64852;48.092;-1.640;2023-02-26T04:07:09;4.10;99.90
76120;DHT22;64852;48.092;-1.640;2023-02-26T04:09:36;3.70;99.90
76120;DHT22;64852;48.092;-1.640;2023-02-26T04:12:01;3.20;99.90
76120;DHT22;64852;48.092;-1.640;2023-02-26T04:14:28;3.10;99.90
76120;DHT22;64852;48.092;-1.640;2023-02-26T04:16:53;3.20;99.90
76120;DHT22;64852;48.092;-1.640;2023-02-26T04:19:19;3.20;99.90
76120;DHT22;64852;48.092;-1.640;2023-02-26T04:21:45;4.20;99.90
76120;DHT22;64852;48.092;-1.640;2023-02-26T04:24:10;3.10;99.90
76120;DHT22;64852;48.092;-1.640;2023-02-26T04:26:36;3.40;99.90
76120;DHT22;64852;48.092;-1.640;2023-02-26T04:29:02;3.00;99.90
76120;DHT22;64852;48.092;-1.640;2023-02-26T04:31:27;3.50;99.90
76120;DHT22;64852;48.092;-1.640;2023-02-26T04:33:53;3.90;99.90
76120;DHT22;64852;48.092;-1.640;2023-02-26T04:36:19;3.60;99.90
76120;DHT22;64852;48.092;-1.640;2023-02-26T04:38:44;3.70;99.90
76120;DHT22;64852;48.092;-1.640;2023-02-26T04:41:10;4.10;99.90
76120;DHT22;64852;48.092;-1.640;2023-02-26T04:43:36;2.90;99.90
76120;DHT22;64852;48.092;-1.640;2023-02-26T04:46:02;3.00;99.90
76120;DHT22;64852;48.092;-1.640;2023-02-26T04:48:28;2.80;99.90
76120;DHT22;64852;48.092;-1.640;2023-02-26T04:50:53;2.90;99.90
76120;DHT22;64852;48.092;-1.640;2023-02-26T04:53:19;2.90;99.90
76120;DHT22;64852;48.092;-1.640;2023-02-26T04:55:47;3.90;99.90
76120;DHT22;64852;48.092;-1.640;2023-02-26T04:58:13;3.00;99.90
76120;DHT22;64852;48.092;-1.640;2023-02-26T05:00:39;3.70;99.90
76120;DHT22;64852;48.092;-1.640;2023-02-26T05:03:05;3.50;99.90
76120;DHT22;64852;48.092;-1.640;2023-02-26T05:05:31;3.60;99.90
76120;DHT22;64852;48.092;-1.640;2023-02-26T05:07:57;3.30;99.90
76120;DHT22;64852;48.092;-1.640;2023-02-26T05:10:23;2.80;99.90
76120;DHT22;64852;48.092;-1.640;2023-02-26T05:12:49;3.20;99.90
76120;DHT22;64852;48.092;-1.640;2023-02-26T05:15:15;3.00;99.90
76120;DHT22;64852;48.092;-1.640;2023-02-26T05:17:41;2.50;99.90
76120;DHT22;64852;48.092;-1.640;2023-02-26T05:20:07;3.60;99.90
76120;DHT22;64852;48.092;-1.640;2023-02-26T05:22:37;2.60;99.90
76120;DHT22;64852;48.092;-1.640;2023-02-26T05:25:03;3.50;99.90
76120;DHT22;64852;48.092;-1.640;2023-02-26T05:27:29;2.60;99.90
76120;DHT22;64852;48.092;-1.640;2023-02-26T05:29:55;3.30;99.90
76120;DHT22;64852;48.092;-1.640;2023-02-26T05:32:21;3.40;99.90
76120;DHT22;64852;48.092;-1.640;2023-02-26T05:34:46;3.10;99.90
76120;DHT22;64852;48.092;-1.640;2023-02-26T05:37:12;2.60;99.90
76120;DHT22;64852;48.092;-1.640;2023-02-26T05:39:38;2.90;99.90
76120;DHT22;64852;48.092;-1.640;2023-02-26T05:42:06;2.60;99.90
76120;DHT22;64852;48.092;-1.640;2023-02-26T05:44:31;3.60;99.90
76120;DHT22;64852;48.092;-1.640;2023-02-26T05:46:57;3.50;99.90
76120;DHT22;64852;48.092;-1.640;2023-02-26T05:49:23;3.00;99.90
76120;DHT22;64852;48.092;-1.640;2023-02-26T05:51:48;2.50;99.90
76120;DHT22;64852;48.092;-1.640;2023-02-26T05:54:14;3.20;99.90
76120;DHT22;64852;48.092;-1.640;2023-02-26T05:56:40;2.60;99.90
76120;DHT22;64852;48.092;-1.640;2023-02-26T05:59:05;3.10;99.90
76120;DHT22;64852;48.092;-1.640;2023-02-26T06:01:31;3.00;99.90
76120;DHT22;64852;48.092;-1.640;2023-02-26T06:03:57;2.60;99.90
76120;DHT22;64852;48.092;-1.640;2023-02-26T06:06:22;3.60;99.90
76120;DHT22;64852;48.092;-1.640;2023-02-26T06:08:49;3.10;99.90
76120;DHT22;64852;48.092;-1.640;2023-02-26T06:11:15;3.30;99.90
76120;DHT22;64852;48.092;-1.640;2023-02-26T06:13:41;2.70;99.90
76120;DHT22;64852;48.092;-1.640;2023-02-26T06:16:06;2.50;99.90
76120;DHT22;64852;48.092;-1.640;2023-02-26T06:18:32;3.50;99.90
76120;DHT22;64852;48.092;-1.640;2023-02-26T06:20:59;3.60;99.90
76120;DHT22;64852;48.092;-1.640;2023-02-26T06:23:24;2.60;99.90
76120;DHT22;64852;48.092;-1.640;2023-02-26T06:25:51;2.80;99.90
76120;DHT22;64852;48.092;-1.640;2023-02-26T06:28:17;2.70;99.90
76120;DHT22;64852;48.092;-1.640;2023-02-26T06:30:43;2.50;99.90
76120;DHT22;64852;48.092;-1.640;2023-02-26T06:33:09;3.20;99.90
76120;DHT22;64852;48.092;-1.640;2023-02-26T06:35:34;2.80;99.90
76120;DHT22;64852;48.092;-1.640;2023-02-26T06:38:00;2.60;99.90
76120;DHT22;64852;48.092;-1.640;2023-02-26T06:40:26;3.40;99.90
76120;DHT22;64852;48.092;-1.640;2023-02-26T06:42:51;2.40;99.90
76120;DHT22;64852;48.092;-1.640;2023-02-26T06:45:17;3.30;99.90
76120;DHT22;64852;48.092;-1.640;2023-02-26T06:47:43;2.60;99.90
76120;DHT22;64852;48.092;-1.640;2023-02-26T06:50:09;3.40;99.90
76120;DHT22;64852;48.092;-1.640;2023-02-26T06:52:35;2.40;99.90
76120;DHT22;64852;48.092;-1.640;2023-02-26T06:55:02;3.50;99.90
76120;DHT22;64852;48.092;-1.640;2023-02-26T06:57:27;3.40;99.90
76120;DHT22;64852;48.092;-1.640;2023-02-26T06:59:53;2.50;99.90
76120;DHT22;64852;48.092;-1.640;2023-02-26T07:02:20;3.20;99.90
76120;DHT22;64852;48.092;-1.640;2023-02-26T07:04:46;2.90;99.90
76120;DHT22;64852;48.092;-1.640;2023-02-26T07:07:12;2.70;99.90
76120;DHT22;64852;48.092;-1.640;2023-02-26T07:09:38;3.50;99.90
76120;DHT22;64852;48.092;-1.640;2023-02-26T07:12:04;2.50;99.90
76120;DHT22;64852;48.092;-1.640;2023-02-26T07:14:32;2.30;99.90
76120;DHT22;64852;48.092;-1.640;2023-02-26T07:16:58;3.30;99.90
76120;DHT22;64852;48.092;-1.640;2023-02-26T07:19:24;3.20;99.90
76120;DHT22;64852;48.092;-1.640;2023-02-26T07:21:49;2.40;99.90
76120;DHT22;64852;48.092;-1.640;2023-02-26T07:24:15;2.40;99.90
76120;DHT22;64852;48.092;-1.640;2023-02-26T07:26:41;2.40;99.90
76120;DHT22;64852;48.092;-1.640;2023-02-26T07:29:07;3.40;99.90
76120;DHT22;64852;48.092;-1.640;2023-02-26T07:31:32;2.40;99.90
76120;DHT22;64852;48.092;-1.640;2023-02-26T07:33:58;2.70;99.90
76120;DHT22;64852;48.092;-1.640;2023-02-26T07:36:24;2.50;99.90
76120;DHT22;64852;48.092;-1.640;2023-02-26T07:38:50;3.10;99.90
76120;DHT22;64852;48.092;-1.640;2023-02-26T07:41:15;3.40;99.90
76120;DHT22;64852;48.092;-1.640;2023-02-26T07:43:41;3.30;99.90
76120;DHT22;64852;48.092;-1.640;2023-02-26T07:46:07;3.20;99.90
76120;DHT22;64852;48.092;-1.640;2023-02-26T07:48:33;3.50;99.90
76120;DHT22;64852;48.092;-1.640;2023-02-26T07:50:59;2.50;99.90
76120;DHT22;64852;48.092;-1.640;2023-02-26T07:53:25;2.60;99.90
76120;DHT22;64852;48.092;-1.640;2023-02-26T07:55:50;2.70;99.90
76120;DHT22;64852;48.092;-1.640;2023-02-26T07:58:17;3.20;99.90
76120;DHT22;64852;48.092;-1.640;2023-02-26T08:00:42;2.80;99.90
76120;DHT22;64852;48.092;-1.640;2023-02-26T08:03:08;3.30;99.90
76120;DHT22;64852;48.092;-1.640;2023-02-26T08:05:33;2.80;99.90
76120;DHT22;64852;48.092;-1.640;2023-02-26T08:07:59;2.90;99.90
76120;DHT22;64852;48.092;-1.640;2023-02-26T08:10:26;2.90;99.90
76120;DHT22;64852;48.092;-1.640;2023-02-26T08:12:52;2.90;99.90
76120;DHT22;64852;48.092;-1.640;2023-02-26T08:15:18;3.60;99.90
76120;DHT22;64852;48.092;-1.640;2023-02-26T08:17:43;3.70;99.90
76120;DHT22;64852;48.092;-1.640;2023-02-26T08:20:10;3.60;99.90
76120;DHT22;64852;48.092;-1.640;2023-02-26T08:22:36;3.30;99.90
76120;DHT22;64852;48.092;-1.640;2023-02-26T08:25:03;3.90;99.90
76120;DHT22;64852;48.092;-1.640;2023-02-26T08:27:28;3.20;99.90
76120;DHT22;64852;48.092;-1.640;2023-02-26T08:29:54;3.40;99.90
76120;DHT22;64852;48.092;-1.640;2023-02-26T08:32:20;4.20;99.90
76120;DHT22;64852;48.092;-1.640;2023-02-26T08:34:47;4.00;99.90
76120;DHT22;64852;48.092;-1.640;2023-02-26T08:37:13;3.70;99.90
76120;DHT22;64852;48.092;-1.640;2023-02-26T08:39:39;3.60;99.90
76120;DHT22;64852;48.092;-1.640;2023-02-26T08:42:06;3.70;99.90
76120;DHT22;64852;48.092;-1.640;2023-02-26T08:44:32;3.60;99.90
76120;DHT22;64852;48.092;-1.640;2023-02-26T08:46:58;3.70;99.90
76120;DHT22;64852;48.092;-1.640;2023-02-26T08:49:24;4.50;99.90
76120;DHT22;64852;48.092;-1.640;2023-02-26T08:51:50;3.90;99.90
76120;DHT22;64852;48.092;-1.640;2023-02-26T08:54:15;4.00;99.90
76120;DHT22;64852;48.092;-1.640;2023-02-26T08:56:41;4.30;99.90
76120;DHT22;64852;48.092;-1.640;2023-02-26T08:59:07;4.70;99.90
76120;DHT22;64852;48.092;-1.640;2023-02-26T09:01:36;4.70;99.90
76120;DHT22;64852;48.092;-1.640;2023-02-26T09:04:01;4.80;99.90
76120;DHT22;64852;48.092;-1.640;2023-02-26T09:06:27;4.40;99.90
76120;DHT22;64852;48.092;-1.640;2023-02-26T09:08:53;5.00;99.90
76120;DHT22;64852;48.092;-1.640;2023-02-26T09:11:18;4.70;99.90
76120;DHT22;64852;48.092;-1.640;2023-02-26T09:13:44;4.70;99.90
76120;DHT22;64852;48.092;-1.640;2023-02-26T09:16:10;4.90;99.90
76120;DHT22;64852;48.092;-1.640;2023-02-26T09:18:35;4.90;99.90
76120;DHT22;64852;48.092;-1.640;2023-02-26T09:21:01;5.00;99.90
76120;DHT22;64852;48.092;-1.640;2023-02-26T09:23:27;5.10;99.90
76120;DHT22;64852;48.092;-1.640;2023-02-26T09:25:54;5.20;99.90
76120;DHT22;64852;48.092;-1.640;2023-02-26T09:28:21;5.30;99.90
76120;DHT22;64852;48.092;-1.640;2023-02-26T09:30:51;5.50;99.90
76120;DHT22;64852;48.092;-1.640;2023-02-26T09:33:17;5.60;99.90
76120;DHT22;64852;48.092;-1.640;2023-02-26T09:35:43;5.60;99.90
76120;DHT22;64852;48.092;-1.640;2023-02-26T09:38:09;5.70;99.90
76120;DHT22;64852;48.092;-1.640;2023-02-26T09:40:53;5.70;99.90
76120;DHT22;64852;48.092;-1.640;2023-02-26T09:46:33;5.70;99.90
76120;DHT22;64852;48.092;-1.640;2023-02-26T09:49:27;5.90;98.10
76120;DHT22;64852;48.092;-1.640;2023-02-26T09:51:55;5.90;93.90
76120;DHT22;64852;48.092;-1.640;2023-02-26T09:54:40;5.90;95.40
76120;DHT22;64852;48.092;-1.640;2023-02-26T09:57:10;6.00;96.20
76120;DHT22;64852;48.092;-1.640;2023-02-26T09:59:38;6.10;98.70
76120;DHT22;64852;48.092;-1.640;2023-02-26T10:02:17;6.20;99.00
76120;DHT22;64852;48.092;-1.640;2023-02-26T10:05:15;6.30;98.70
76120;DHT22;64852;48.092;-1.640;2023-02-26T10:08:04;6.40;91.80
76120;DHT22;64852;48.092;-1.640;2023-02-26T10:10:56;6.60;93.20
76120;DHT22;64852;48.092;-1.640;2023-02-26T10:13:43;6.70;93.70
76120;DHT22;64852;48.092;-1.640;2023-02-26T10:16:14;6.90;97.40
76120;DHT22;64852;48.092;-1.640;2023-02-26T10:18:52;7.00;88.40
76120;DHT22;64852;48.092;-1.640;2023-02-26T10:23:57;7.30;97.90
76120;DHT22;64852;48.092;-1.640;2023-02-26T10:26:32;7.50;96.80
76120;DHT22;64852;48.092;-1.640;2023-02-26T10:34:57;7.60;89.70
76120;DHT22;64852;48.092;-1.640;2023-02-26T10:40:30;8.10;92.10
76120;DHT22;64852;48.092;-1.640;2023-02-26T10:43:03;8.10;82.70
76120;DHT22;64852;48.092;-1.640;2023-02-26T10:48:45;8.20;80.10
76120;DHT22;64852;48.092;-1.640;2023-02-26T10:51:19;8.40;84.80
76120;DHT22;64852;48.092;-1.640;2023-02-26T10:53:59;8.50;84.70
76120;DHT22;64852;48.092;-1.640;2023-02-26T10:56:32;8.70;90.30
76120;DHT22;64852;48.092;-1.640;2023-02-26T10:58:58;8.80;85.80
76120;DHT22;64852;48.092;-1.640;2023-02-26T11:01:26;8.90;78.10
76120;DHT22;64852;48.092;-1.640;2023-02-26T11:04:05;9.00;82.00
76120;DHT22;64852;48.092;-1.640;2023-02-26T11:06:58;9.00;73.70
76120;DHT22;64852;48.092;-1.640;2023-02-26T11:09:33;9.00;70.80
76120;DHT22;64852;48.092;-1.640;2023-02-26T11:12:05;9.10;76.70
76120;DHT22;64852;48.092;-1.640;2023-02-26T11:14:32;9.00;66.50
76120;DHT22;64852;48.092;-1.640;2023-02-26T11:17:01;9.10;70.10
76120;DHT22;64852;48.092;-1.640;2023-02-26T11:19:32;9.20;72.80
76120;DHT22;64852;48.092;-1.640;2023-02-26T11:22:01;9.40;74.30
76120;DHT22;64852;48.092;-1.640;2023-02-26T11:24:34;9.60;74.50
76120;DHT22;64852;48.092;-1.640;2023-02-26T11:27:03;9.80;73.20
76120;DHT22;64852;48.092;-1.640;2023-02-26T11:29:39;9.70;61.70
76120;DHT22;64852;48.092;-1.640;2023-02-26T11:32:09;9.60;60.00
76120;DHT22;64852;48.092;-1.640;2023-02-26T11:34:38;9.50;63.00
76120;DHT22;64852;48.092;-1.640;2023-02-26T11:37:10;9.70;65.10
76120;DHT22;64852;48.092;-1.640;2023-02-26T11:39:37;9.70;59.50
76120;DHT22;64852;48.092;-1.640;2023-02-26T11:42:03;9.70;61.70
76120;DHT22;64852;48.092;-1.640;2023-02-26T11:44:40;9.90;61.40
76120;DHT22;64852;48.092;-1.640;2023-02-26T11:47:12;10.10;65.40
76120;DHT22;64852;48.092;-1.640;2023-02-26T11:49:43;10.40;68.00
76120;DHT22;64852;48.092;-1.640;2023-02-26T11:54:37;11.00;68.50
76120;DHT22;64852;48.092;-1.640;2023-02-26T11:57:14;11.30;64.00
76120;DHT22;64852;48.092;-1.640;2023-02-26T11:59:40;11.40;59.90
76120;DHT22;64852;48.092;-1.640;2023-02-26T12:02:13;10.80;57.10
76120;DHT22;64852;48.092;-1.640;2023-02-26T12:04:44;10.20;55.40
76120;DHT22;64852;48.092;-1.640;2023-02-26T12:07:14;10.10;59.10
76120;DHT22;64852;48.092;-1.640;2023-02-26T12:09:41;10.00;59.30
76120;DHT22;64852;48.092;-1.640;2023-02-26T12:18:29;10.00;59.50
76120;DHT22;64852;48.092;-1.640;2023-02-26T12:49:15;13.90;46.80
76120;DHT22;64852;48.092;-1.640;2023-02-26T13:21:32;15.60;36.90
76120;DHT22;64852;48.092;-1.640;2023-02-26T13:24:11;15.80;36.00
76120;DHT22;64852;48.092;-1.640;2023-02-26T13:26:39;15.70;35.30
76120;DHT22;64852;48.092;-1.640;2023-02-26T13:29:15;16.10;39.10
76120;DHT22;64852;48.092;-1.640;2023-02-26T13:37:14;17.50;37.30
76120;DHT22;64852;48.092;-1.640;2023-02-26T13:50:37;17.40;32.30
76120;DHT22;64852;48.092;-1.640;2023-02-26T13:56:14;17.40;36.40
76120;DHT22;64852;48.092;-1.640;2023-02-26T13:59:03;18.40;33.20
76120;DHT22;64852;48.092;-1.640;2023-02-26T14:01:34;18.30;34.30
76120;DHT22;64852;48.092;-1.640;2023-02-26T14:07:03;19.80;33.00
76120;DHT22;64852;48.092;-1.640;2023-02-26T14:09:53;20.50;33.60
76120;DHT22;64852;48.092;-1.640;2023-02-26T14:12:24;20.00;33.30
76120;DHT22;64852;48.092;-1.640;2023-02-26T14:17:40;20.80;31.70
76120;DHT22;64852;48.092;-1.640;2023-02-26T14:20:28;21.00;30.10
76120;DHT22;64852;48.092;-1.640;2023-02-26T14:25:51;21.50;29.70
76120;DHT22;64852;48.092;-1.640;2023-02-26T14:28:19;21.50;29.40
76120;DHT22;64852;48.092;-1.640;2023-02-26T14:30:52;21.40;28.70
76120;DHT22;64852;48.092;-1.640;2023-02-26T14:33:29;21.80;32.00
76120;DHT22;64852;48.092;-1.640;2023-02-26T14:35:55;22.00;30.80
76120;DHT22;64852;48.092;-1.640;2023-02-26T14:38:33;22.50;30.20
76120;DHT22;64852;48.092;-1.640;2023-02-26T14:46:01;22.30;24.60
76120;DHT22;64852;48.092;-1.640;2023-02-26T14:48:28;22.20;29.30
76120;DHT22;64852;48.092;-1.640;2023-02-26T14:57:18;22.90;29.20
76120;DHT22;64852;48.092;-1.640;2023-02-26T15:18:55;22.30;25.10
76120;DHT22;64852;48.092;-1.640;2023-02-26T15:24:09;21.90;25.20
76120;DHT22;64852;48.092;-1.640;2023-02-26T15:26:41;21.60;25.00
76120;DHT22;64852;48.092;-1.640;2023-02-26T15:29:10;20.20;22.00
76120;DHT22;64852;48.092;-1.640;2023-02-26T15:31:51;19.70;22.70
76120;DHT22;64852;48.092;-1.640;2023-02-26T15:34:19;19.10;23.10
76120;DHT22;64852;48.092;-1.640;2023-02-26T15:36:48;18.40;24.70
76120;DHT22;64852;48.092;-1.640;2023-02-26T15:39:16;16.70;22.50
76120;DHT22;64852;48.092;-1.640;2023-02-26T15:41:43;15.20;23.00
76120;DHT22;64852;48.092;-1.640;2023-02-26T15:44:18;13.80;24.70
76120;DHT22;64852;48.092;-1.640;2023-02-26T15:46:49;13.60;25.30
76120;DHT22;64852;48.092;-1.640;2023-02-26T15:49:28;13.50;25.80
76120;DHT22;64852;48.092;-1.640;2023-02-26T15:51:55;12.90;25.70
76120;DHT22;64852;48.092;-1.640;2023-02-26T15:54:24;12.40;26.50
76120;DHT22;64852;48.092;-1.640;2023-02-26T15:56:52;11.90;26.40
76120;DHT22;64852;48.092;-1.640;2023-02-26T15:59:23;11.60;27.50
76120;DHT22;64852;48.092;-1.640;2023-02-26T16:01:50;11.50;27.40
76120;DHT22;64852;48.092;-1.640;2023-02-26T16:04:18;11.10;27.90
76120;DHT22;64852;48.092;-1.640;2023-02-26T16:06:53;10.80;28.00
76120;DHT22;64852;48.092;-1.640;2023-02-26T16:09:25;10.70;28.50
76120;DHT22;64852;48.092;-1.640;2023-02-26T16:11:54;10.40;29.00
76120;DHT22;64852;48.092;-1.640;2023-02-26T16:14:30;10.10;29.20
76120;DHT22;64852;48.092;-1.640;2023-02-26T16:16:58;9.80;29.70
76120;DHT22;64852;48.092;-1.640;2023-02-26T16:19:36;9.90;29.90
76120;DHT22;64852;48.092;-1.640;2023-02-26T16:22:19;10.00;29.60
76120;DHT22;64852;48.092;-1.640;2023-02-26T16:24:49;9.90;29.10
76120;DHT22;64852;48.092;-1.640;2023-02-26T16:27:15;9.70;29.70
76120;DHT22;64852;48.092;-1.640;2023-02-26T16:29:50;9.40;30.00
76120;DHT22;64852;48.092;-1.640;2023-02-26T16:32:16;9.50;30.10
76120;DHT22;64852;48.092;-1.640;2023-02-26T16:34:54;9.50;30.00
76120;DHT22;64852;48.092;-1.640;2023-02-26T16:48:01;8.80;31.30
76120;DHT22;64852;48.092;-1.640;2023-02-26T16:50:33;9.00;30.80
76120;DHT22;64852;48.092;-1.640;2023-02-26T16:53:11;9.00;30.60
76120;DHT22;64852;48.092;-1.640;2023-02-26T16:55:39;8.70;30.60
76120;DHT22;64852;48.092;-1.640;2023-02-26T16:58:10;8.90;30.80
76120;DHT22;64852;48.092;-1.640;2023-02-26T17:00:37;8.90;30.00
76120;DHT22;64852;48.092;-1.640;2023-02-26T17:03:22;8.80;30.00
76120;DHT22;64852;48.092;-1.640;2023-02-26T17:08:27;8.70;29.70
76120;DHT22;64852;48.092;-1.640;2023-02-26T17:11:06;8.60;30.60
76120;DHT22;64852;48.092;-1.640;2023-02-26T17:13:33;8.70;30.10
76120;DHT22;64852;48.092;-1.640;2023-02-26T17:16:04;8.60;31.00
76120;DHT22;64852;48.092;-1.640;2023-02-26T17:18:30;8.80;31.30
76120;DHT22;64852;48.092;-1.640;2023-02-26T17:20:57;8.80;31.10
76120;DHT22;64852;48.092;-1.640;2023-02-26T17:23:27;8.60;30.80
76120;DHT22;64852;48.092;-1.640;2023-02-26T17:25:54;8.30;31.40
76120;DHT22;64852;48.092;-1.640;2023-02-26T17:28:23;8.30;31.90
76120;DHT22;64852;48.092;-1.640;2023-02-26T17:30:50;8.40;32.00
76120;DHT22;64852;48.092;-1.640;2023-02-26T17:33:15;8.50;31.90
76120;DHT22;64852;48.092;-1.640;2023-02-26T17:35:42;8.40;32.30
76120;DHT22;64852;48.092;-1.640;2023-02-26T17:38:10;8.20;33.10
76120;DHT22;64852;48.092;-1.640;2023-02-26T17:40:38;8.10;33.40
76120;DHT22;64852;48.092;-1.640;2023-02-26T17:43:05;8.00;34.20
76120;DHT22;64852;48.092;-1.640;2023-02-26T17:45:32;7.90;35.10
76120;DHT22;64852;48.092;-1.640;2023-02-26T17:47:59;7.70;35.70
76120;DHT22;64852;48.092;-1.640;2023-02-26T17:50:41;7.70;36.40
76120;DHT22;64852;48.092;-1.640;2023-02-26T17:53:09;7.50;37.00
76120;DHT22;64852;48.092;-1.640;2023-02-26T17:55:36;7.50;37.60
76120;DHT22;64852;48.092;-1.640;2023-02-26T17:58:12;7.50;37.60
76120;DHT22;64852;48.092;-1.640;2023-02-26T18:00:38;7.50;37.90
76120;DHT22;64852;48.092;-1.640;2023-02-26T18:03:08;7.70;37.70
76120;DHT22;64852;48.092;-1.640;2023-02-26T18:05:34;7.40;38.90
76120;DHT22;64852;48.092;-1.640;2023-02-26T18:08:04;7.20;39.80
76120;DHT22;64852;48.092;-1.640;2023-02-26T18:10:31;7.20;39.60
76120;DHT22;64852;48.092;-1.640;2023-02-26T18:12:56;7.40;39.00
76120;DHT22;64852;48.092;-1.640;2023-02-26T18:15:22;7.30;39.80
76120;DHT22;64852;48.092;-1.640;2023-02-26T18:17:49;7.40;39.40
76120;DHT22;64852;48.092;-1.640;2023-02-26T18:20:18;7.30;39.90
76120;DHT22;64852;48.092;-1.640;2023-02-26T18:22:44;7.20;40.20
76120;DHT22;64852;48.092;-1.640;2023-02-26T18:25:12;7.40;39.90
76120;DHT22;64852;48.092;-1.640;2023-02-26T18:27:38;7.20;40.30
76120;DHT22;64852;48.092;-1.640;2023-02-26T18:30:11;7.10;42.20
76120;DHT22;64852;48.092;-1.640;2023-02-26T18:32:39;7.30;40.50
76120;DHT22;64852;48.092;-1.640;2023-02-26T18:35:05;7.20;41.30
76120;DHT22;64852;48.092;-1.640;2023-02-26T18:37:30;7.30;41.00
76120;DHT22;64852;48.092;-1.640;2023-02-26T18:39:59;7.10;42.00
76120;DHT22;64852;48.092;-1.640;2023-02-26T18:42:26;7.00;42.50
76120;DHT22;64852;48.092;-1.640;2023-02-26T18:44:53;7.00;42.70
76120;DHT22;64852;48.092;-1.640;2023-02-26T18:47:20;6.90;42.80
76120;DHT22;64852;48.092;-1.640;2023-02-26T18:49:47;6.80;43.50
76120;DHT22;64852;48.092;-1.640;2023-02-26T18:52:13;7.00;44.70
76120;DHT22;64852;48.092;-1.640;2023-02-26T18:54:39;6.80;45.10
76120;DHT22;64852;48.092;-1.640;2023-02-26T18:57:05;6.70;44.50
76120;DHT22;64852;48.092;-1.640;2023-02-26T18:59:31;6.70;46.30
76120;DHT22;64852;48.092;-1.640;2023-02-26T19:01:58;6.70;46.50
76120;DHT22;64852;48.092;-1.640;2023-02-26T19:04:24;6.80;46.70